sensor_id;sensor_type;location;lat;lon;timestamp;P1;durP1;ratioP1;P2;durP2;ratioP2
23684;SDS011;12020;51.384;6.908;2023-12-29T00:00:23;4.87;;;1.67;;
23684;SDS011;12020;51.384;6.908;2023-12-29T00:09:14;4.25;;;1.50;;
23684;SDS011;12020;51.384;6.908;2023-12-29T00:15:02;7.30;;;1.60;;
23684;SDS011;12020;51.384;6.908;2023-12-29T00:17:33;5.45;;;1.60;;
23684;SDS011;12020;51.384;6.908;2023-12-29T00:20:07;5.60;;;1.58;;
23684;SDS011;12020;51.384;6.908;2023-12-29T00:23:04;6.35;;;1.52;;
23684;SDS011;12020;51.384;6.908;2023-12-29T00:25:49;5.13;;;1.50;;
23684;SDS011;12020;51.384;6.908;2023-12-29T00:28:16;4.43;;;1.40;;
23684;SDS011;12020;51.384;6.908;2023-12-29T00:30:49;4.72;;;1.50;;
23684;SDS011;12020;51.384;6.908;2023-12-29T00:33:16;5.67;;;1.47;;
23684;SDS011;12020;51.384;6.908;2023-12-29T00:36:01;3.95;;;1.40;;
23684;SDS011;12020;51.384;6.908;2023-12-29T00:38:45;4.13;;;1.42;;
23684;SDS011;12020;51.384;6.908;2023-12-29T00:42:08;4.30;;;1.48;;
23684;SDS011;12020;51.384;6.908;2023-12-29T00:44:35;4.53;;;1.50;;
23684;SDS011;12020;51.384;6.908;2023-12-29T00:47:13;4.53;;;1.45;;
23684;SDS011;12020;51.384;6.908;2023-12-29T00:49:55;4.90;;;1.65;;
23684;SDS011;12020;51.384;6.908;2023-12-29T00:54:56;6.32;;;1.52;;
23684;SDS011;12020;51.384;6.908;2023-12-29T00:57:31;5.50;;;1.40;;
23684;SDS011;12020;51.384;6.908;2023-12-29T01:00:01;4.80;;;1.30;;
23684;SDS011;12020;51.384;6.908;2023-12-29T01:05:27;4.80;;;1.85;;
23684;SDS011;12020;51.384;6.908;2023-12-29T01:08:08;5.78;;;1.60;;
23684;SDS011;12020;51.384;6.908;2023-12-29T01:10:43;5.27;;;1.80;;
23684;SDS011;12020;51.384;6.908;2023-12-29T01:13:14;3.60;;;1.43;;
23684;SDS011;12020;51.384;6.908;2023-12-29T01:18:11;4.70;;;1.33;;
23684;SDS011;12020;51.384;6.908;2023-12-29T01:20:47;3.92;;;1.42;;
23684;SDS011;12020;51.384;6.908;2023-12-29T01:23:20;6.15;;;1.40;;
23684;SDS011;12020;51.384;6.908;2023-12-29T01:25:49;4.90;;;2.00;;
23684;SDS011;12020;51.384;6.908;2023-12-29T01:28:40;5.60;;;1.73;;
23684;SDS011;12020;51.384;6.908;2023-12-29T01:31:10;4.68;;;1.50;;
23684;SDS011;12020;51.384;6.908;2023-12-29T01:33:45;6.60;;;1.85;;
23684;SDS011;12020;51.384;6.908;2023-12-29T01:41:48;7.95;;;1.83;;
23684;SDS011;12020;51.384;6.908;2023-12-29T01:48:34;3.97;;;1.40;;
23684;SDS011;12020;51.384;6.908;2023-12-29T01:51:18;5.05;;;1.65;;
23684;SDS011;12020;51.384;6.908;2023-12-29T02:05:39;3.63;;;1.50;;
23684;SDS011;12020;51.384;6.908;2023-12-29T02:08:06;7.65;;;1.75;;
23684;SDS011;12020;51.384;6.908;2023-12-29T02:10:37;4.97;;;1.70;;
23684;SDS011;12020;51.384;6.908;2023-12-29T02:13:15;4.90;;;1.70;;
23684;SDS011;12020;51.384;6.908;2023-12-29T02:15:52;5.93;;;1.85;;
23684;SDS011;12020;51.384;6.908;2023-12-29T02:21:55;8.50;;;2.10;;
23684;SDS011;12020;51.384;6.908;2023-12-29T02:34:05;8.30;;;2.22;;
23684;SDS011;12020;51.384;6.908;2023-12-29T02:36:39;5.32;;;1.90;;
23684;SDS011;12020;51.384;6.908;2023-12-29T02:39:10;5.90;;;1.98;;
23684;SDS011;12020;51.384;6.908;2023-12-29T02:41:37;6.68;;;2.15;;
23684;SDS011;12020;51.384;6.908;2023-12-29T02:47:02;8.68;;;2.55;;
23684;SDS011;12020;51.384;6.908;2023-12-29T02:53:11;6.30;;;2.17;;
23684;SDS011;12020;51.384;6.908;2023-12-29T02:55:44;6.82;;;2.10;;
23684;SDS011;12020;51.384;6.908;2023-12-29T03:01:33;7.22;;;2.00;;
23684;SDS011;12020;51.384;6.908;2023-12-29T03:04:02;6.57;;;1.80;;
23684;SDS011;12020;51.384;6.908;2023-12-29T03:12:11;8.63;;;2.00;;
23684;SDS011;12020;51.384;6.908;2023-12-29T03:14:49;7.53;;;1.98;;
23684;SDS011;12020;51.384;6.908;2023-12-29T03:20:15;6.90;;;2.35;;
23684;SDS011;12020;51.384;6.908;2023-12-29T03:22:42;5.13;;;1.88;;
23684;SDS011;12020;51.384;6.908;2023-12-29T03:28:02;5.68;;;1.85;;
23684;SDS011;12020;51.384;6.908;2023-12-29T03:30:44;5.60;;;1.70;;
23684;SDS011;12020;51.384;6.908;2023-12-29T03:33:14;7.57;;;2.17;;
23684;SDS011;12020;51.384;6.908;2023-12-29T03:35:41;7.18;;;2.20;;
23684;SDS011;12020;51.384;6.908;2023-12-29T03:38:13;5.88;;;1.58;;
23684;SDS011;12020;51.384;6.908;2023-12-29T03:40:41;5.47;;;2.10;;
23684;SDS011;12020;51.384;6.908;2023-12-29T03:43:08;5.45;;;2.03;;
23684;SDS011;12020;51.384;6.908;2023-12-29T03:48:46;6.85;;;1.80;;
23684;SDS011;12020;51.384;6.908;2023-12-29T03:51:30;7.78;;;2.10;;
23684;SDS011;12020;51.384;6.908;2023-12-29T03:56:47;7.63;;;1.85;;
23684;SDS011;12020;51.384;6.908;2023-12-29T03:59:13;4.95;;;1.50;;
23684;SDS011;12020;51.384;6.908;2023-12-29T04:04:38;7.15;;;1.95;;
23684;SDS011;12020;51.384;6.908;2023-12-29T04:07:21;5.13;;;1.80;;
23684;SDS011;12020;51.384;6.908;2023-12-29T04:09:53;6.20;;;1.70;;
23684;SDS011;12020;51.384;6.908;2023-12-29T04:15:22;9.20;;;1.90;;
23684;SDS011;12020;51.384;6.908;2023-12-29T04:17:50;5.40;;;1.70;;
23684;SDS011;12020;51.384;6.908;2023-12-29T04:20:23;5.03;;;1.65;;
23684;SDS011;12020;51.384;6.908;2023-12-29T04:22:52;6.50;;;1.60;;
23684;SDS011;12020;51.384;6.908;2023-12-29T04:25:20;5.50;;;1.67;;
23684;SDS011;12020;51.384;6.908;2023-12-29T04:27:52;4.97;;;1.60;;
23684;SDS011;12020;51.384;6.908;2023-12-29T04:31:05;4.20;;;1.60;;
23684;SDS011;12020;51.384;6.908;2023-12-29T04:33:37;5.68;;;1.80;;
23684;SDS011;12020;51.384;6.908;2023-12-29T04:42:43;5.28;;;1.63;;
23684;SDS011;12020;51.384;6.908;2023-12-29T04:45:09;4.82;;;1.48;;
23684;SDS011;12020;51.384;6.908;2023-12-29T04:47:39;5.25;;;1.58;;
23684;SDS011;12020;51.384;6.908;2023-12-29T04:50:19;5.22;;;1.50;;
23684;SDS011;12020;51.384;6.908;2023-12-29T04:53:00;5.50;;;1.83;;
23684;SDS011;12020;51.384;6.908;2023-12-29T04:58:32;6.43;;;2.03;;
23684;SDS011;12020;51.384;6.908;2023-12-29T05:00:59;5.57;;;1.63;;
23684;SDS011;12020;51.384;6.908;2023-12-29T05:08:58;6.55;;;1.77;;
23684;SDS011;12020;51.384;6.908;2023-12-29T05:11:28;6.30;;;1.65;;
23684;SDS011;12020;51.384;6.908;2023-12-29T05:17:28;6.43;;;1.63;;
23684;SDS011;12020;51.384;6.908;2023-12-29T05:20:12;5.07;;;1.63;;
23684;SDS011;12020;51.384;6.908;2023-12-29T05:23:17;8.02;;;1.80;;
23684;SDS011;12020;51.384;6.908;2023-12-29T05:31:56;7.47;;;1.97;;
23684;SDS011;12020;51.384;6.908;2023-12-29T05:37:15;6.13;;;1.95;;
23684;SDS011;12020;51.384;6.908;2023-12-29T05:39:49;5.65;;;1.40;;
23684;SDS011;12020;51.384;6.908;2023-12-29T05:42:22;6.07;;;1.50;;
23684;SDS011;12020;51.384;6.908;2023-12-29T05:44:51;6.03;;;1.70;;
23684;SDS011;12020;51.384;6.908;2023-12-29T05:50:05;6.30;;;1.75;;
23684;SDS011;12020;51.384;6.908;2023-12-29T05:52:45;6.47;;;1.90;;
23684;SDS011;12020;51.384;6.908;2023-12-29T05:58:41;5.63;;;1.83;;
23684;SDS011;12020;51.384;6.908;2023-12-29T06:01:25;5.03;;;1.45;;
23684;SDS011;12020;51.384;6.908;2023-12-29T06:04:28;6.65;;;1.77;;
23684;SDS011;12020;51.384;6.908;2023-12-29T06:07:34;8.43;;;1.70;;
23684;SDS011;12020;51.384;6.908;2023-12-29T06:10:13;7.57;;;1.60;;
23684;SDS011;12020;51.384;6.908;2023-12-29T06:13:13;7.20;;;1.97;;
23684;SDS011;12020;51.384;6.908;2023-12-29T06:21:53;8.73;;;1.85;;
23684;SDS011;12020;51.384;6.908;2023-12-29T06:24:23;6.38;;;1.73;;
23684;SDS011;12020;51.384;6.908;2023-12-29T06:27:02;6.55;;;1.70;;
23684;SDS011;12020;51.384;6.908;2023-12-29T06:38:57;5.18;;;1.52;;
23684;SDS011;12020;51.384;6.908;2023-12-29T06:41:33;6.72;;;1.77;;
23684;SDS011;12020;51.384;6.908;2023-12-29T06:44:00;5.63;;;1.60;;
23684;SDS011;12020;51.384;6.908;2023-12-29T06:46:27;5.43;;;1.70;;
23684;SDS011;12020;51.384;6.908;2023-12-29T06:48:52;5.50;;;1.70;;
23684;SDS011;12020;51.384;6.908;2023-12-29T06:51:19;6.15;;;1.30;;
23684;SDS011;12020;51.384;6.908;2023-12-29T06:53:47;6.35;;;1.70;;
23684;SDS011;12020;51.384;6.908;2023-12-29T06:56:22;9.07;;;1.90;;
23684;SDS011;12020;51.384;6.908;2023-12-29T06:58:53;6.82;;;1.85;;
23684;SDS011;12020;51.384;6.908;2023-12-29T07:01:23;4.82;;;1.45;;
23684;SDS011;12020;51.384;6.908;2023-12-29T07:04:00;6.85;;;1.48;;
23684;SDS011;12020;51.384;6.908;2023-12-29T07:06:29;5.63;;;1.43;;
23684;SDS011;12020;51.384;6.908;2023-12-29T07:08:56;5.80;;;1.67;;
23684;SDS011;12020;51.384;6.908;2023-12-29T07:11:48;6.80;;;1.53;;
23684;SDS011;12020;51.384;6.908;2023-12-29T07:14:20;5.07;;;1.77;;
23684;SDS011;12020;51.384;6.908;2023-12-29T07:19:21;6.15;;;1.60;;
23684;SDS011;12020;51.384;6.908;2023-12-29T07:25:02;4.40;;;1.60;;
23684;SDS011;12020;51.384;6.908;2023-12-29T07:27:48;6.03;;;1.70;;
23684;SDS011;12020;51.384;6.908;2023-12-29T07:33:14;7.95;;;1.73;;
23684;SDS011;12020;51.384;6.908;2023-12-29T07:35:39;6.75;;;1.83;;
23684;SDS011;12020;51.384;6.908;2023-12-29T07:41:42;6.43;;;2.08;;
23684;SDS011;12020;51.384;6.908;2023-12-29T07:44:14;6.38;;;1.77;;
23684;SDS011;12020;51.384;6.908;2023-12-29T07:46:40;7.15;;;2.00;;
23684;SDS011;12020;51.384;6.908;2023-12-29T07:49:12;6.87;;;1.70;;
23684;SDS011;12020;51.384;6.908;2023-12-29T07:55:09;6.07;;;1.65;;
23684;SDS011;12020;51.384;6.908;2023-12-29T07:57:35;6.57;;;1.63;;
23684;SDS011;12020;51.384;6.908;2023-12-29T08:02:58;6.22;;;1.83;;
23684;SDS011;12020;51.384;6.908;2023-12-29T08:05:40;8.98;;;1.92;;
23684;SDS011;12020;51.384;6.908;2023-12-29T08:08:44;8.73;;;1.90;;
23684;SDS011;12020;51.384;6.908;2023-12-29T08:11:13;5.75;;;1.55;;
23684;SDS011;12020;51.384;6.908;2023-12-29T08:13:59;5.20;;;1.50;;
23684;SDS011;12020;51.384;6.908;2023-12-29T08:16:26;7.47;;;1.70;;
23684;SDS011;12020;51.384;6.908;2023-12-29T08:18:53;5.28;;;1.75;;
23684;SDS011;12020;51.384;6.908;2023-12-29T08:21:20;4.07;;;1.30;;
23684;SDS011;12020;51.384;6.908;2023-12-29T08:23:47;4.30;;;1.35;;
23684;SDS011;12020;51.384;6.908;2023-12-29T08:26:17;3.28;;;1.25;;
23684;SDS011;12020;51.384;6.908;2023-12-29T08:28:48;4.32;;;1.30;;
23684;SDS011;12020;51.384;6.908;2023-12-29T08:31:15;5.00;;;1.40;;
23684;SDS011;12020;51.384;6.908;2023-12-29T08:33:44;5.40;;;1.67;;
23684;SDS011;12020;51.384;6.908;2023-12-29T08:36:11;4.50;;;1.55;;
23684;SDS011;12020;51.384;6.908;2023-12-29T08:38:37;5.40;;;1.50;;
23684;SDS011;12020;51.384;6.908;2023-12-29T08:41:04;3.90;;;1.33;;
23684;SDS011;12020;51.384;6.908;2023-12-29T08:43:30;5.93;;;1.43;;
23684;SDS011;12020;51.384;6.908;2023-12-29T08:45:57;4.13;;;1.30;;
23684;SDS011;12020;51.384;6.908;2023-12-29T08:48:23;4.55;;;1.20;;
23684;SDS011;12020;51.384;6.908;2023-12-29T08:50:50;5.50;;;1.40;;
23684;SDS011;12020;51.384;6.908;2023-12-29T08:53:18;3.55;;;1.20;;
23684;SDS011;12020;51.384;6.908;2023-12-29T08:55:50;4.70;;;1.40;;
23684;SDS011;12020;51.384;6.908;2023-12-29T08:58:25;4.05;;;1.15;;
23684;SDS011;12020;51.384;6.908;2023-12-29T09:00:55;4.03;;;1.20;;
23684;SDS011;12020;51.384;6.908;2023-12-29T09:03:22;4.03;;;1.20;;
23684;SDS011;12020;51.384;6.908;2023-12-29T09:05:48;6.00;;;1.20;;
23684;SDS011;12020;51.384;6.908;2023-12-29T09:08:15;3.08;;;1.00;;
23684;SDS011;12020;51.384;6.908;2023-12-29T09:10:42;4.00;;;1.73;;
23684;SDS011;12020;51.384;6.908;2023-12-29T09:13:14;4.07;;;1.10;;
23684;SDS011;12020;51.384;6.908;2023-12-29T09:15:45;3.30;;;1.10;;
23684;SDS011;12020;51.384;6.908;2023-12-29T09:18:14;3.65;;;1.10;;
23684;SDS011;12020;51.384;6.908;2023-12-29T09:20:40;4.40;;;1.00;;
23684;SDS011;12020;51.384;6.908;2023-12-29T09:23:07;2.43;;;0.90;;
23684;SDS011;12020;51.384;6.908;2023-12-29T09:25:33;4.15;;;0.93;;
23684;SDS011;12020;51.384;6.908;2023-12-29T09:28:02;3.00;;;1.08;;
23684;SDS011;12020;51.384;6.908;2023-12-29T09:30:29;2.05;;;0.73;;
23684;SDS011;12020;51.384;6.908;2023-12-29T09:32:55;1.58;;;0.80;;
23684;SDS011;12020;51.384;6.908;2023-12-29T09:35:20;2.33;;;0.80;;
23684;SDS011;12020;51.384;6.908;2023-12-29T09:37:49;3.97;;;0.80;;
23684;SDS011;12020;51.384;6.908;2023-12-29T09:40:16;3.42;;;0.90;;
23684;SDS011;12020;51.384;6.908;2023-12-29T09:42:42;2.38;;;0.70;;
23684;SDS011;12020;51.384;6.908;2023-12-29T09:45:12;3.08;;;0.73;;
23684;SDS011;12020;51.384;6.908;2023-12-29T09:47:44;2.83;;;0.87;;
23684;SDS011;12020;51.384;6.908;2023-12-29T09:50:37;2.20;;;0.70;;
23684;SDS011;12020;51.384;6.908;2023-12-29T09:53:05;1.58;;;0.50;;
23684;SDS011;12020;51.384;6.908;2023-12-29T09:55:34;1.57;;;0.70;;
23684;SDS011;12020;51.384;6.908;2023-12-29T09:58:01;2.15;;;0.73;;
23684;SDS011;12020;51.384;6.908;2023-12-29T10:00:29;2.13;;;0.70;;
23684;SDS011;12020;51.384;6.908;2023-12-29T10:03:00;1.80;;;0.80;;
23684;SDS011;12020;51.384;6.908;2023-12-29T10:05:29;2.17;;;0.80;;
23684;SDS011;12020;51.384;6.908;2023-12-29T10:07:55;2.80;;;0.80;;
23684;SDS011;12020;51.384;6.908;2023-12-29T10:10:24;1.45;;;0.77;;
23684;SDS011;12020;51.384;6.908;2023-12-29T10:12:57;2.20;;;0.80;;
23684;SDS011;12020;51.384;6.908;2023-12-29T10:15:37;2.40;;;0.70;;
23684;SDS011;12020;51.384;6.908;2023-12-29T10:18:22;1.05;;;0.60;;
23684;SDS011;12020;51.384;6.908;2023-12-29T10:21:28;2.20;;;0.60;;
23684;SDS011;12020;51.384;6.908;2023-12-29T10:24:05;2.00;;;0.60;;
23684;SDS011;12020;51.384;6.908;2023-12-29T10:26:49;1.50;;;0.70;;
23684;SDS011;12020;51.384;6.908;2023-12-29T10:29:18;2.57;;;1.27;;
23684;SDS011;12020;51.384;6.908;2023-12-29T10:31:46;1.88;;;0.80;;
23684;SDS011;12020;51.384;6.908;2023-12-29T10:36:58;1.50;;;1.00;;
23684;SDS011;12020;51.384;6.908;2023-12-29T10:39:38;2.85;;;1.20;;
23684;SDS011;12020;51.384;6.908;2023-12-29T10:42:43;3.70;;;1.20;;
23684;SDS011;12020;51.384;6.908;2023-12-29T10:45:18;3.20;;;1.10;;
23684;SDS011;12020;51.384;6.908;2023-12-29T10:47:46;3.03;;;1.10;;
23684;SDS011;12020;51.384;6.908;2023-12-29T10:50:12;3.45;;;1.23;;
23684;SDS011;12020;51.384;6.908;2023-12-29T10:52:38;3.80;;;1.20;;
23684;SDS011;12020;51.384;6.908;2023-12-29T10:55:10;2.35;;;1.00;;
23684;SDS011;12020;51.384;6.908;2023-12-29T10:57:42;3.20;;;1.20;;
23684;SDS011;12020;51.384;6.908;2023-12-29T11:00:08;3.10;;;1.10;;
23684;SDS011;12020;51.384;6.908;2023-12-29T11:02:38;2.83;;;0.90;;
23684;SDS011;12020;51.384;6.908;2023-12-29T11:05:06;3.50;;;1.10;;
23684;SDS011;12020;51.384;6.908;2023-12-29T11:07:40;2.60;;;1.10;;
23684;SDS011;12020;51.384;6.908;2023-12-29T11:10:09;4.00;;;1.20;;
23684;SDS011;12020;51.384;6.908;2023-12-29T11:12:37;2.58;;;1.00;;
23684;SDS011;12020;51.384;6.908;2023-12-29T11:15:04;3.35;;;1.10;;
23684;SDS011;12020;51.384;6.908;2023-12-29T11:17:32;3.10;;;1.20;;
23684;SDS011;12020;51.384;6.908;2023-12-29T11:20:00;3.22;;;1.27;;
23684;SDS011;12020;51.384;6.908;2023-12-29T11:22:31;4.45;;;1.33;;
23684;SDS011;12020;51.384;6.908;2023-12-29T11:25:20;3.05;;;1.35;;
23684;SDS011;12020;51.384;6.908;2023-12-29T11:27:50;3.58;;;1.20;;
23684;SDS011;12020;51.384;6.908;2023-12-29T11:30:21;3.37;;;1.37;;
23684;SDS011;12020;51.384;6.908;2023-12-29T11:33:14;5.90;;;1.65;;
23684;SDS011;12020;51.384;6.908;2023-12-29T11:44:27;4.78;;;1.17;;
23684;SDS011;12020;51.384;6.908;2023-12-29T11:46:55;3.80;;;1.27;;
23684;SDS011;12020;51.384;6.908;2023-12-29T11:52:37;5.22;;;1.50;;
23684;SDS011;12020;51.384;6.908;2023-12-29T11:55:08;2.40;;;1.00;;
23684;SDS011;12020;51.384;6.908;2023-12-29T11:57:38;5.15;;;1.40;;
23684;SDS011;12020;51.384;6.908;2023-12-29T12:00:06;4.63;;;1.70;;
23684;SDS011;12020;51.384;6.908;2023-12-29T12:02:33;3.95;;;1.40;;
23684;SDS011;12020;51.384;6.908;2023-12-29T12:05:00;3.38;;;1.20;;
23684;SDS011;12020;51.384;6.908;2023-12-29T12:12:48;4.57;;;1.40;;
23684;SDS011;12020;51.384;6.908;2023-12-29T12:17:53;3.33;;;1.40;;
23684;SDS011;12020;51.384;6.908;2023-12-29T12:20:21;4.28;;;1.50;;
23684;SDS011;12020;51.384;6.908;2023-12-29T12:25:46;4.65;;;1.50;;
23684;SDS011;12020;51.384;6.908;2023-12-29T12:28:15;2.95;;;1.30;;
23684;SDS011;12020;51.384;6.908;2023-12-29T12:34:16;3.53;;;1.25;;
23684;SDS011;12020;51.384;6.908;2023-12-29T12:36:48;3.33;;;1.30;;
23684;SDS011;12020;51.384;6.908;2023-12-29T12:39:24;4.45;;;1.42;;
23684;SDS011;12020;51.384;6.908;2023-12-29T12:42:45;3.63;;;1.40;;
23684;SDS011;12020;51.384;6.908;2023-12-29T12:52:08;2.10;;;1.20;;
23684;SDS011;12020;51.384;6.908;2023-12-29T13:10:42;2.35;;;1.20;;
23684;SDS011;12020;51.384;6.908;2023-12-29T13:13:20;3.40;;;1.33;;
23684;SDS011;12020;51.384;6.908;2023-12-29T13:15:50;4.38;;;1.30;;
23684;SDS011;12020;51.384;6.908;2023-12-29T13:18:41;3.60;;;1.30;;
23684;SDS011;12020;51.384;6.908;2023-12-29T13:21:08;2.92;;;1.50;;
23684;SDS011;12020;51.384;6.908;2023-12-29T13:23:54;3.33;;;1.17;;
23684;SDS011;12020;51.384;6.908;2023-12-29T13:26:24;3.10;;;1.17;;
23684;SDS011;12020;51.384;6.908;2023-12-29T13:28:52;3.35;;;1.10;;
23684;SDS011;12020;51.384;6.908;2023-12-29T13:31:22;3.25;;;1.35;;
23684;SDS011;12020;51.384;6.908;2023-12-29T13:34:05;3.67;;;1.20;;
23684;SDS011;12020;51.384;6.908;2023-12-29T13:36:44;3.17;;;1.43;;
23684;SDS011;12020;51.384;6.908;2023-12-29T13:42:40;3.42;;;1.65;;
23684;SDS011;12020;51.384;6.908;2023-12-29T13:45:18;3.65;;;1.70;;
23684;SDS011;12020;51.384;6.908;2023-12-29T13:47:45;3.15;;;1.38;;
23684;SDS011;12020;51.384;6.908;2023-12-29T13:50:16;3.35;;;1.40;;
23684;SDS011;12020;51.384;6.908;2023-12-29T13:52:43;4.20;;;1.50;;
23684;SDS011;12020;51.384;6.908;2023-12-29T13:55:20;4.70;;;1.40;;
23684;SDS011;12020;51.384;6.908;2023-12-29T13:57:50;3.53;;;1.52;;
23684;SDS011;12020;51.384;6.908;2023-12-29T14:00:20;4.30;;;1.50;;
23684;SDS011;12020;51.384;6.908;2023-12-29T14:08:39;4.22;;;1.40;;
23684;SDS011;12020;51.384;6.908;2023-12-29T14:11:14;3.93;;;1.37;;
23684;SDS011;12020;51.384;6.908;2023-12-29T14:13:45;4.03;;;1.35;;
23684;SDS011;12020;51.384;6.908;2023-12-29T14:16:14;4.47;;;1.50;;
23684;SDS011;12020;51.384;6.908;2023-12-29T14:18:53;3.90;;;1.40;;
23684;SDS011;12020;51.384;6.908;2023-12-29T14:21:27;3.88;;;1.35;;
23684;SDS011;12020;51.384;6.908;2023-12-29T14:24:18;4.25;;;1.20;;
23684;SDS011;12020;51.384;6.908;2023-12-29T14:26:53;3.00;;;1.20;;
23684;SDS011;12020;51.384;6.908;2023-12-29T14:29:24;4.63;;;1.40;;
23684;SDS011;12020;51.384;6.908;2023-12-29T14:31:52;2.83;;;1.10;;
23684;SDS011;12020;51.384;6.908;2023-12-29T14:34:18;3.53;;;1.10;;
23684;SDS011;12020;51.384;6.908;2023-12-29T14:36:44;3.47;;;1.40;;
23684;SDS011;12020;51.384;6.908;2023-12-29T14:39:20;3.22;;;1.05;;
23684;SDS011;12020;51.384;6.908;2023-12-29T14:41:47;2.40;;;0.90;;
23684;SDS011;12020;51.384;6.908;2023-12-29T14:44:14;2.03;;;1.00;;
23684;SDS011;12020;51.384;6.908;2023-12-29T14:46:40;2.20;;;1.23;;
23684;SDS011;12020;51.384;6.908;2023-12-29T14:49:06;2.55;;;1.00;;
23684;SDS011;12020;51.384;6.908;2023-12-29T14:51:32;3.22;;;1.13;;
23684;SDS011;12020;51.384;6.908;2023-12-29T14:53:59;3.65;;;1.00;;
23684;SDS011;12020;51.384;6.908;2023-12-29T14:56:45;2.58;;;1.08;;
23684;SDS011;12020;51.384;6.908;2023-12-29T14:59:13;2.90;;;0.90;;
23684;SDS011;12020;51.384;6.908;2023-12-29T15:01:39;2.88;;;0.90;;
23684;SDS011;12020;51.384;6.908;2023-12-29T15:07:14;2.88;;;1.10;;
23684;SDS011;12020;51.384;6.908;2023-12-29T15:09:42;1.73;;;0.90;;
23684;SDS011;12020;51.384;6.908;2023-12-29T15:12:08;2.63;;;1.15;;
23684;SDS011;12020;51.384;6.908;2023-12-29T15:14:34;2.15;;;1.00;;
23684;SDS011;12020;51.384;6.908;2023-12-29T15:17:00;2.35;;;0.90;;
23684;SDS011;12020;51.384;6.908;2023-12-29T15:22:36;1.77;;;0.90;;
23684;SDS011;12020;51.384;6.908;2023-12-29T15:25:02;2.45;;;0.80;;
23684;SDS011;12020;51.384;6.908;2023-12-29T15:27:31;1.77;;;0.80;;
23684;SDS011;12020;51.384;6.908;2023-12-29T15:33:03;1.45;;;0.60;;
23684;SDS011;12020;51.384;6.908;2023-12-29T15:35:34;1.45;;;0.70;;
23684;SDS011;12020;51.384;6.908;2023-12-29T15:38:01;1.73;;;0.73;;
23684;SDS011;12020;51.384;6.908;2023-12-29T15:40:28;2.22;;;0.90;;
23684;SDS011;12020;51.384;6.908;2023-12-29T15:42:54;1.63;;;1.00;;
23684;SDS011;12020;51.384;6.908;2023-12-29T15:45:23;2.00;;;1.00;;
23684;SDS011;12020;51.384;6.908;2023-12-29T15:47:54;1.85;;;1.00;;
23684;SDS011;12020;51.384;6.908;2023-12-29T15:50:40;1.65;;;0.93;;
23684;SDS011;12020;51.384;6.908;2023-12-29T15:53:10;1.63;;;1.17;;
23684;SDS011;12020;51.384;6.908;2023-12-29T15:55:36;2.67;;;1.30;;
23684;SDS011;12020;51.384;6.908;2023-12-29T15:58:05;2.23;;;1.20;;
23684;SDS011;12020;51.384;6.908;2023-12-29T16:00:50;2.63;;;1.20;;
23684;SDS011;12020;51.384;6.908;2023-12-29T16:03:17;3.08;;;1.50;;
23684;SDS011;12020;51.384;6.908;2023-12-29T16:05:48;3.38;;;1.50;;
23684;SDS011;12020;51.384;6.908;2023-12-29T16:08:13;3.22;;;1.40;;
23684;SDS011;12020;51.384;6.908;2023-12-29T16:10:40;2.10;;;1.35;;
23684;SDS011;12020;51.384;6.908;2023-12-29T16:13:06;2.55;;;1.25;;
23684;SDS011;12020;51.384;6.908;2023-12-29T16:15:34;3.15;;;1.30;;
23684;SDS011;12020;51.384;6.908;2023-12-29T16:18:02;2.22;;;1.10;;
23684;SDS011;12020;51.384;6.908;2023-12-29T16:20:34;2.83;;;1.00;;
23684;SDS011;12020;51.384;6.908;2023-12-29T16:23:23;2.20;;;0.85;;
23684;SDS011;12020;51.384;6.908;2023-12-29T16:25:53;2.20;;;0.90;;
23684;SDS011;12020;51.384;6.908;2023-12-29T16:28:33;2.17;;;1.10;;
23684;SDS011;12020;51.384;6.908;2023-12-29T16:31:03;2.10;;;0.90;;
23684;SDS011;12020;51.384;6.908;2023-12-29T16:33:30;1.87;;;1.20;;
23684;SDS011;12020;51.384;6.908;2023-12-29T16:36:11;2.78;;;1.30;;
23684;SDS011;12020;51.384;6.908;2023-12-29T16:38:38;2.27;;;1.57;;
23684;SDS011;12020;51.384;6.908;2023-12-29T16:41:18;3.15;;;1.42;;
23684;SDS011;12020;51.384;6.908;2023-12-29T16:43:48;2.97;;;1.75;;
23684;SDS011;12020;51.384;6.908;2023-12-29T16:46:14;3.20;;;1.40;;
23684;SDS011;12020;51.384;6.908;2023-12-29T16:48:39;2.50;;;1.40;;
23684;SDS011;12020;51.384;6.908;2023-12-29T16:51:06;2.60;;;1.50;;
23684;SDS011;12020;51.384;6.908;2023-12-29T16:53:33;2.88;;;1.60;;
23684;SDS011;12020;51.384;6.908;2023-12-29T16:56:07;2.87;;;1.67;;
23684;SDS011;12020;51.384;6.908;2023-12-29T16:58:46;2.38;;;1.30;;
23684;SDS011;12020;51.384;6.908;2023-12-29T17:01:12;2.67;;;1.60;;
23684;SDS011;12020;51.384;6.908;2023-12-29T17:03:38;1.35;;;1.13;;
23684;SDS011;12020;51.384;6.908;2023-12-29T17:06:04;2.20;;;1.00;;
23684;SDS011;12020;51.384;6.908;2023-12-29T17:08:30;1.88;;;1.00;;
23684;SDS011;12020;51.384;6.908;2023-12-29T17:10:56;1.88;;;1.20;;
23684;SDS011;12020;51.384;6.908;2023-12-29T17:13:23;2.58;;;1.20;;
23684;SDS011;12020;51.384;6.908;2023-12-29T17:15:50;2.30;;;1.30;;
23684;SDS011;12020;51.384;6.908;2023-12-29T17:18:31;1.88;;;1.40;;
23684;SDS011;12020;51.384;6.908;2023-12-29T17:20:59;2.00;;;1.40;;
23684;SDS011;12020;51.384;6.908;2023-12-29T17:23:28;4.70;;;1.80;;
23684;SDS011;12020;51.384;6.908;2023-12-29T17:25:59;3.13;;;1.92;;
23684;SDS011;12020;51.384;6.908;2023-12-29T17:28:25;4.75;;;2.15;;
23684;SDS011;12020;51.384;6.908;2023-12-29T17:30:52;5.05;;;2.20;;
23684;SDS011;12020;51.384;6.908;2023-12-29T17:33:18;4.17;;;2.00;;
23684;SDS011;12020;51.384;6.908;2023-12-29T17:35:45;4.57;;;1.90;;
23684;SDS011;12020;51.384;6.908;2023-12-29T17:38:13;5.30;;;1.90;;
23684;SDS011;12020;51.384;6.908;2023-12-29T17:40:43;8.15;;;2.28;;
23684;SDS011;12020;51.384;6.908;2023-12-29T17:43:12;4.88;;;1.90;;
23684;SDS011;12020;51.384;6.908;2023-12-29T17:45:42;3.97;;;1.93;;
23684;SDS011;12020;51.384;6.908;2023-12-29T17:48:07;4.13;;;1.77;;
23684;SDS011;12020;51.384;6.908;2023-12-29T17:50:34;3.03;;;1.40;;
23684;SDS011;12020;51.384;6.908;2023-12-29T17:53:08;3.83;;;1.77;;
23684;SDS011;12020;51.384;6.908;2023-12-29T17:55:38;4.05;;;1.55;;
23684;SDS011;12020;51.384;6.908;2023-12-29T18:11:04;2.75;;;1.48;;
23684;SDS011;12020;51.384;6.908;2023-12-29T18:16:57;3.43;;;1.40;;
23684;SDS011;12020;51.384;6.908;2023-12-29T18:25:44;3.40;;;1.50;;
23684;SDS011;12020;51.384;6.908;2023-12-29T18:28:28;4.47;;;1.60;;
23684;SDS011;12020;51.384;6.908;2023-12-29T18:41:06;4.88;;;1.73;;
23684;SDS011;12020;51.384;6.908;2023-12-29T18:43:43;5.28;;;1.60;;
23684;SDS011;12020;51.384;6.908;2023-12-29T18:46:15;4.78;;;1.92;;
23684;SDS011;12020;51.384;6.908;2023-12-29T18:48:47;4.00;;;1.75;;
23684;SDS011;12020;51.384;6.908;2023-12-29T18:51:16;5.05;;;1.90;;
23684;SDS011;12020;51.384;6.908;2023-12-29T18:53:57;4.30;;;1.90;;
23684;SDS011;12020;51.384;6.908;2023-12-29T20:01:22;7.03;;;1.80;;
23684;SDS011;12020;51.384;6.908;2023-12-29T20:04:18;4.85;;;1.48;;
23684;SDS011;12020;51.384;6.908;2023-12-29T20:07:55;5.40;;;1.67;;
23684;SDS011;12020;51.384;6.908;2023-12-29T20:10:27;5.07;;;1.58;;
23684;SDS011;12020;51.384;6.908;2023-12-29T20:13:34;4.97;;;1.58;;
23684;SDS011;12020;51.384;6.908;2023-12-29T20:16:02;5.70;;;1.80;;
23684;SDS011;12020;51.384;6.908;2023-12-29T20:19:01;3.78;;;1.42;;
23684;SDS011;12020;51.384;6.908;2023-12-29T20:22:11;4.05;;;1.50;;
23684;SDS011;12020;51.384;6.908;2023-12-29T20:52:26;6.85;;;1.77;;
23684;SDS011;12020;51.384;6.908;2023-12-29T20:58:39;8.13;;;2.10;;
23684;SDS011;12020;51.384;6.908;2023-12-29T21:01:11;6.95;;;1.90;;
23684;SDS011;12020;51.384;6.908;2023-12-29T21:03:38;6.00;;;1.83;;
23684;SDS011;12020;51.384;6.908;2023-12-29T21:06:13;7.22;;;2.03;;
23684;SDS011;12020;51.384;6.908;2023-12-29T21:08:43;5.65;;;1.80;;
23684;SDS011;12020;51.384;6.908;2023-12-29T21:11:19;6.97;;;1.90;;
23684;SDS011;12020;51.384;6.908;2023-12-29T21:14:05;8.43;;;2.03;;